Time;durP1;ratioP1;P1;durP2;ratioP2;P2;SDS_P1;SDS_P2;PMS_P1;PMS_P2;Temp;Humidity;BMP_temperature;BMP_pressure;BME280_temperature;BME280_humidity;BME280_pressure;Samples;Min_cycle;Max_cycle;Signal;HPM_P1;HPM_P2
2023/12/19 00:00:15;;;;;;;13.30;8.40;;;;;;;4.53;92.12;99746.69;5032526;28;20043;-72
2023/12/19 00:02:43;;;;;;;15.80;8.93;;;;;;;4.84;91.36;99790.63;5044385;28;20083;-71
2023/12/19 00:05:09;;;;;;;16.95;9.57;;;;;;;4.80;91.72;99785.66;5041344;28;20032;-72
2023/12/19 00:07:37;;;;;;;17.20;9.27;;;;;;;4.69;92.68;99779.38;5044207;28;20688;-72
2023/12/19 00:10:02;;;;;;;15.77;8.82;;;;;;;4.74;93.06;99772.25;5036238;28;20036;-72
2023/12/19 00:12:30;;;;;;;10.80;5.72;;;;;;;4.92;94.86;99770.47;5027389;28;20035;-71
2023/12/19 00:14:58;;;;;;;14.27;7.55;;;;;;;5.08;95.46;99762.75;5044148;28;20032;-73
2023/12/19 00:17:28;;;;;;;12.45;7.30;;;;;;;5.17;93.61;99762.28;5044254;28;20762;-73
2023/12/19 00:19:56;;;;;;;15.35;8.23;;;;;;;4.88;93.37;99710.50;5044485;28;20037;-74
2023/12/19 00:22:22;;;;;;;14.27;8.32;;;;;;;5.13;92.54;99755.59;5034660;28;20073;-72
2023/12/19 00:24:47;;;;;;;14.23;7.65;;;;;;;4.97;93.66;99759.00;5044202;28;20040;-70
2023/12/19 00:27:13;;;;;;;13.15;7.45;;;;;;;5.04;93.40;99740.63;5034729;28;20040;-72
2023/12/19 00:29:38;;;;;;;14.00;7.57;;;;;;;5.09;93.63;99754.94;5030455;28;20503;-69
2023/12/19 00:32:04;;;;;;;11.27;6.95;;;;;;;5.12;93.92;99751.38;5047144;28;20213;-72
2023/12/19 00:34:29;;;;;;;13.30;7.22;;;;;;;5.06;94.03;99739.63;5044079;28;20056;-72
2023/12/19 00:36:55;;;;;;;14.63;7.13;;;;;;;5.09;93.92;99744.63;5049625;28;20517;-73
2023/12/19 00:39:22;;;;;;;14.68;8.90;;;;;;;5.01;93.24;99739.03;5031372;28;20109;-71
2023/12/19 00:41:50;;;;;;;15.20;8.80;;;;;;;5.02;92.98;99743.31;5046287;28;20028;-74
2023/12/19 00:44:15;;;;;;;13.82;7.75;;;;;;;4.98;92.84;99744.34;5032221;28;20131;-69
2023/12/19 00:46:43;;;;;;;10.82;6.15;;;;;;;5.05;96.07;99742.28;5032671;28;20039;-71
2023/12/19 00:49:09;;;;;;;12.80;6.90;;;;;;;5.14;96.40;99724.56;5043395;28;20028;-71
2023/12/19 00:51:35;;;;;;;13.18;7.32;;;;;;;5.11;94.62;99718.75;5046505;28;20028;-72
2023/12/19 00:54:00;;;;;;;10.77;6.60;;;;;;;5.16;93.59;99727.06;5025917;28;20053;-70
2023/12/19 00:56:26;;;;;;;12.18;6.45;;;;;;;5.09;93.90;99718.00;5028083;28;20025;-70
2023/12/19 00:58:51;;;;;;;8.93;5.03;;;;;;;5.04;96.28;99715.69;5039241;28;20695;-73
2023/12/19 01:01:21;;;;;;;10.27;5.40;;;;;;;5.25;98.93;99718.84;5050168;28;20039;-71
2023/12/19 01:03:47;;;;;;;11.13;6.10;;;;;;;5.09;96.70;99684.50;5029419;28;20431;-73
2023/12/19 01:06:17;;;;;;;9.73;5.68;;;;;;;5.37;95.46;99731.06;5046605;28;20089;-70
2023/12/19 01:08:43;;;;;;;10.13;6.25;;;;;;;5.41;95.39;99724.00;5043437;28;20135;-71
2023/12/19 01:11:09;;;;;;;11.25;6.32;;;;;;;5.43;94.65;99722.16;5047907;28;20039;-71
2023/12/19 01:13:38;;;;;;;9.55;5.70;;;;;;;5.42;94.59;99728.25;5050224;28;20039;-73
2023/12/19 01:16:03;;;;;;;10.35;6.10;;;;;;;5.31;95.80;99728.84;5025955;28;20024;-73
2023/12/19 01:18:29;;;;;;;9.77;6.20;;;;;;;5.37;94.51;99727.66;5047467;28;20028;-72
2023/12/19 01:20:54;;;;;;;10.20;5.90;;;;;;;5.26;94.91;99710.19;5046477;28;20044;-69
2023/12/19 01:23:20;;;;;;;13.77;7.45;;;;;;;5.33;94.72;99719.25;5051065;28;20582;-71
2023/12/19 01:25:47;;;;;;;14.73;7.22;;;;;;;5.28;94.75;99715.28;5030519;28;20031;-71
2023/12/19 01:28:14;;;;;;;11.27;6.45;;;;;;;5.20;94.68;99711.38;5047128;28;20028;-72
2023/12/19 01:30:44;;;;;;;13.75;6.43;;;;;;;5.20;94.32;99708.78;5041489;28;20032;-72
2023/12/19 01:33:15;;;;;;;9.35;5.20;;;;;;;5.25;95.40;99705.13;5047447;28;20541;-73
2023/12/19 01:35:41;;;;;;;9.73;5.55;;;;;;;5.39;94.25;99707.78;5042275;28;20091;-74
2023/12/19 01:38:08;;;;;;;10.80;6.20;;;;;;;5.31;93.84;99684.13;5027786;28;20614;-73
2023/12/19 01:40:34;;;;;;;13.43;6.10;;;;;;;5.48;94.20;99709.03;5044935;28;20024;-74
2023/12/19 01:43:00;;;;;;;13.23;6.53;;;;;;;5.43;93.98;99708.44;5045408;28;20039;-71
2023/12/19 01:45:28;;;;;;;12.20;6.38;;;;;;;5.38;93.37;99703.53;5030423;28;20031;-71
2023/12/19 01:47:54;;;;;;;10.10;4.90;;;;;;;5.41;94.10;99700.78;5032846;28;20449;-73
2023/12/19 01:50:22;;;;;;;11.60;5.55;;;;;;;5.33;93.75;99695.19;5044263;28;20017;-73
2023/12/19 01:52:57;;;;;;;11.80;5.22;;;;;;;5.36;93.53;99707.94;5038643;28;20051;-73
2023/12/19 01:55:24;;;;;;;10.73;5.55;;;;;;;5.27;93.21;99700.69;5029048;28;20226;-72
2023/12/19 01:57:49;;;;;;;9.35;5.05;;;;;;;4.95;92.66;99654.31;5024637;28;20021;-73
2023/12/19 02:00:17;;;;;;;12.02;5.50;;;;;;;5.19;93.64;99699.38;5047036;28;20028;-70
2023/12/19 02:02:44;;;;;;;11.68;6.20;;;;;;;5.15;94.01;99702.22;5025623;28;20056;-72
2023/12/19 02:05:09;;;;;;;11.65;5.95;;;;;;;5.14;94.42;99698.78;5039450;28;20112;-69
2023/12/19 02:07:35;;;;;;;15.05;6.78;;;;;;;5.16;94.89;99694.38;5030454;28;20929;-67
2023/12/19 02:10:03;;;;;;;12.32;6.40;;;;;;;5.04;95.04;99689.91;5038598;28;20040;-70
2023/12/19 02:12:28;;;;;;;13.52;6.93;;;;;;;5.09;94.80;99687.06;5040928;28;20025;-72
2023/12/19 02:14:54;;;;;;;15.23;7.70;;;;;;;4.99;94.51;99682.41;5026892;28;20028;-68
2023/12/19 02:17:22;;;;;;;14.18;7.38;;;;;;;5.04;94.61;99694.22;5052025;28;20029;-72
2023/12/19 02:19:51;;;;;;;12.88;6.30;;;;;;;4.97;95.03;99681.66;5029556;28;20032;-70
2023/12/19 02:22:17;;;;;;;16.02;6.88;;;;;;;4.98;95.65;99679.91;5033401;28;20025;-72
2023/12/19 02:24:45;;;;;;;12.35;6.80;;;;;;;5.02;95.25;99686.59;5050541;28;20032;-73
2023/12/19 02:27:13;;;;;;;13.50;6.55;;;;;;;4.95;96.21;99680.91;5047117;28;20683;-70
2023/12/19 02:29:44;;;;;;;12.15;6.35;;;;;;;4.95;96.06;99673.19;5047588;28;20060;-72
2023/12/19 02:32:09;;;;;;;12.52;5.97;;;;;;;4.96;96.16;99669.69;5028710;28;20075;-70
2023/12/19 02:34:35;;;;;;;10.98;6.22;;;;;;;5.01;95.56;99680.56;5047181;28;20033;-68
2023/12/19 02:37:03;;;;;;;11.93;6.22;;;;;;;4.92;95.57;99675.91;5030013;28;20559;-72
2023/12/19 02:39:28;;;;;;;11.85;6.00;;;;;;;4.86;96.26;99678.84;5042637;28;20086;-73
2023/12/19 02:41:53;;;;;;;11.95;6.35;;;;;;;4.76;96.68;99655.31;5029434;28;20570;-73
2023/12/19 02:44:21;;;;;;;10.57;5.45;;;;;;;4.94;99.79;99671.50;5046064;28;20032;-73
2023/12/19 02:46:46;;;;;;;7.53;4.60;;;;;;;4.83;100.00;99617.16;5041527;28;20028;-73
2023/12/19 02:49:14;;;;;;;9.35;5.10;;;;;;;5.09;100.00;99651.81;5050064;28;20064;-69
2023/12/19 02:51:39;;;;;;;8.07;5.05;;;;;;;5.08;99.81;99651.91;5031943;28;20085;-73
2023/12/19 02:54:08;;;;;;;10.18;5.38;;;;;;;5.03;99.05;99648.75;5029055;28;20770;-71
2023/12/19 02:56:34;;;;;;;10.02;5.00;;;;;;;5.02;99.09;99650.50;5042855;28;20032;-70
2023/12/19 02:59:02;;;;;;;8.82;5.07;;;;;;;5.00;99.33;99652.31;5037434;28;20036;-73
2023/12/19 03:01:30;;;;;;;10.38;5.45;;;;;;;5.07;98.52;99648.47;5051324;28;20428;-75
2023/12/19 03:03:57;;;;;;;10.25;5.30;;;;;;;5.07;98.43;99651.06;5027781;28;20032;-71
2023/12/19 03:06:23;;;;;;;9.15;4.93;;;;;;;4.98;98.60;99651.56;5047065;28;20029;-74
2023/12/19 03:08:50;;;;;;;9.98;5.15;;;;;;;5.00;98.56;99663.47;5029317;28;20043;-74
2023/12/19 03:11:16;;;;;;;8.45;4.53;;;;;;;5.01;98.88;99659.97;5041329;28;20032;-72
2023/12/19 03:13:45;;;;;;;9.80;4.82;;;;;;;4.92;99.35;99647.56;5043285;28;20101;-72
2023/12/19 03:16:10;;;;;;;7.85;4.40;;;;;;;4.91;99.57;99642.50;5041158;28;21281;-75
2023/12/19 03:18:35;;;;;;;7.97;4.47;;;;;;;4.97;98.59;99642.19;5053588;28;20024;-72
2023/12/19 03:21:06;;;;;;;10.25;4.70;;;;;;;4.81;99.24;99609.50;5032634;28;20039;-74
2023/12/19 03:23:32;;;;;;;7.65;4.10;;;;;;;5.12;98.84;99654.22;5037926;28;21243;-73
2023/12/19 03:25:57;;;;;;;8.38;4.05;;;;;;;5.08;98.34;99644.19;5048143;28;20082;-72
2023/12/19 03:28:22;;;;;;;6.72;3.75;;;;;;;4.99;98.15;99638.59;5033629;28;20160;-73
2023/12/19 03:30:50;;;;;;;8.75;3.58;;;;;;;5.06;97.62;99636.53;5035454;28;20161;-70
2023/12/19 03:33:15;;;;;;;7.07;3.53;;;;;;;5.20;97.49;99633.16;5049541;28;20477;-72
2023/12/19 03:35:43;;;;;;;6.90;3.70;;;;;;;5.38;95.11;99639.03;5048054;28;20059;-74
2023/12/19 03:38:11;;;;;;;6.97;3.40;;;;;;;5.56;94.15;99639.75;5029378;28;20040;-68
2023/12/19 03:40:39;;;;;;;7.63;3.58;;;;;;;5.61;92.49;99626.59;5055562;28;20082;-73
2023/12/19 03:43:05;;;;;;;6.35;3.35;;;;;;;5.42;92.11;99586.38;5035941;28;20310;-72
2023/12/19 03:45:30;;;;;;;7.50;4.18;;;;;;;5.64;92.77;99631.56;5041078;28;20036;-72
2023/12/19 03:47:58;;;;;;;6.60;3.63;;;;;;;5.59;93.21;99624.09;5042466;28;20071;-73
2023/12/19 03:50:28;;;;;;;6.22;3.65;;;;;;;5.42;92.90;99616.47;5056044;28;20107;-73
2023/12/19 03:52:53;;;;;;;;;;;;;;;5.42;93.63;99629.38;5046408;28;20064;-73
2023/12/19 03:55:18;;;;;;;6.53;3.37;;;;;;;5.30;94.26;99620.59;5027348;28;19947;-71
2023/12/19 03:57:43;;;;;;;7.03;3.97;;;;;;;5.25;95.09;99615.69;5037543;28;20328;-73
2023/12/19 04:00:09;;;;;;;7.28;3.65;;;;;;;5.25;95.20;99615.69;5027072;28;20025;-70
2023/12/19 04:02:35;;;;;;;7.90;4.10;;;;;;;5.20;95.75;99620.25;5054165;28;20059;-72
2023/12/19 04:05:03;;;;;;;6.88;3.83;;;;;;;5.23;95.21;99616.69;5034826;28;20486;-71
2023/12/19 04:07:32;;;;;;;7.63;3.65;;;;;;;5.19;94.58;99629.75;5030644;28;20134;-70
2023/12/19 04:09:57;;;;;;;7.25;3.90;;;;;;;5.03;95.23;99610.91;5035031;28;20081;-73
2023/12/19 04:12:23;;;;;;;8.18;4.20;;;;;;;5.05;95.52;99619.38;5044019;28;21262;-74
2023/12/19 04:14:50;;;;;;;8.85;4.05;;;;;;;4.96;95.85;99615.56;5050350;28;20111;-74
2023/12/19 04:17:16;;;;;;;9.18;4.32;;;;;;;4.95;95.32;99603.59;5050311;28;20029;-74
2023/12/19 04:19:41;;;;;;;8.65;4.75;;;;;;;4.94;94.82;99604.50;5051158;28;20109;-70
2023/12/19 04:22:09;;;;;;;7.05;4.07;;;;;;;4.88;94.77;99598.88;5043017;28;20028;-73
2023/12/19 04:24:37;;;;;;;6.55;3.83;;;;;;;4.77;95.60;99589.16;5035073;28;20044;-74
2023/12/19 04:27:02;;;;;;;7.10;4.03;;;;;;;4.57;95.67;99567.03;5023799;28;20032;-72
2023/12/19 04:29:30;;;;;;;7.18;4.10;;;;;;;4.81;95.35;99604.34;5049978;28;20027;-73
2023/12/19 04:31:56;;;;;;;7.57;4.18;;;;;;;4.50;95.65;99561.38;5044710;28;20696;-73
2023/12/19 04:34:24;;;;;;;8.90;4.25;;;;;;;4.56;95.96;99591.13;5045179;28;20090;-73
2023/12/19 04:36:54;;;;;;;8.63;4.72;;;;;;;4.51;97.12;99587.97;5042042;28;20041;-73
2023/12/19 04:39:19;;;;;;;9.38;4.75;;;;;;;4.48;96.34;99595.88;5029983;28;20021;-70
2023/12/19 04:41:47;;;;;;;10.32;5.25;;;;;;;4.19;96.08;99541.59;5049348;28;20666;-71
2023/12/19 04:44:12;;;;;;;7.38;3.97;;;;;;;4.42;96.22;99595.28;5043255;28;20029;-74
2023/12/19 04:46:41;;;;;;;9.25;4.60;;;;;;;4.41;96.57;99585.06;5054235;28;20491;-72
2023/12/19 04:49:07;;;;;;;10.70;4.78;;;;;;;4.49;96.42;99585.50;5043346;28;20024;-74
2023/12/19 04:51:34;;;;;;;8.65;4.25;;;;;;;4.45;96.15;99583.97;5051636;28;20765;-71
2023/12/19 04:54:03;;;;;;;9.20;4.32;;;;;;;4.28;96.02;99548.84;5029659;28;20074;-71
2023/12/19 04:56:29;;;;;;;9.23;5.40;;;;;;;4.24;96.21;99539.63;5041444;28;20021;-72
2023/12/19 04:58:57;;;;;;;10.85;4.63;;;;;;;4.41;97.12;99580.72;5034065;28;20486;-72
2023/12/19 05:01:25;;;;;;;7.75;3.75;;;;;;;4.51;98.56;99588.81;5026994;28;20033;-70
2023/12/19 05:03:50;;;;;;;8.85;3.80;;;;;;;4.69;100.00;99584.41;5052630;28;20044;-72
2023/12/19 05:06:18;;;;;;;6.80;3.85;;;;;;;4.88;100.00;99578.25;5044040;28;20028;-72
2023/12/19 05:08:49;;;;;;;6.60;3.35;;;;;;;4.77;100.00;99533.28;5051303;28;20134;-72
2023/12/19 05:11:14;;;;;;;6.40;3.38;;;;;;;5.14;100.00;99572.44;5045353;28;20040;-69
2023/12/19 05:13:42;;;;;;;6.85;3.45;;;;;;;5.16;100.00;99572.38;5050193;28;20042;-70
2023/12/19 05:16:17;;;;;;;6.43;3.10;;;;;;;5.17;100.00;99564.56;5034205;28;20531;-71
2023/12/19 05:18:46;;;;;;;5.85;3.05;;;;;;;5.22;100.00;99569.47;5046347;28;20040;-69
2023/12/19 05:21:12;;;;;;;5.72;2.85;;;;;;;5.14;96.07;99531.19;5046409;28;20155;-74
2023/12/19 05:23:38;;;;;;;7.68;3.30;;;;;;;5.59;95.16;99569.91;5042287;28;20037;-73
2023/12/19 05:26:08;;;;;;;5.70;2.75;;;;;;;5.61;94.54;99568.06;5031188;28;20757;-74
2023/12/19 05:28:35;;;;;;;5.10;2.50;;;;;;;5.50;94.33;99562.72;5026783;28;20029;-72
2023/12/19 05:31:05;;;;;;;5.75;2.67;;;;;;;5.61;94.60;99572.41;5033191;28;20128;-71
2023/12/19 05:33:32;;;;;;;6.18;2.85;;;;;;;5.38;94.48;99543.59;5030346;28;20050;-71
2023/12/19 05:35:59;;;;;;;5.32;2.85;;;;;;;5.27;94.51;99531.31;5044728;28;20135;-72
2023/12/19 05:38:25;;;;;;;7.65;3.08;;;;;;;5.18;95.61;99522.41;5033287;28;20873;-71
2023/12/19 05:40:56;;;;;;;8.05;3.13;;;;;;;5.48;95.21;99567.13;5033358;28;20125;-72
2023/12/19 05:43:23;;;;;;;5.18;2.58;;;;;;;5.31;96.08;99532.84;5044561;28;20067;-72
2023/12/19 05:45:49;;;;;;;6.25;2.65;;;;;;;5.51;96.02;99548.88;5028052;28;20518;-74
2023/12/19 05:48:15;;;;;;;5.40;2.60;;;;;;;5.41;95.68;99546.00;5045428;28;20040;-71
2023/12/19 05:50:40;;;;;;;6.13;2.78;;;;;;;5.52;95.72;99550.56;5045243;28;20503;-72
2023/12/19 05:53:09;;;;;;;6.93;3.08;;;;;;;5.39;95.38;99545.28;5038351;28;20044;-71
2023/12/19 05:55:35;;;;;;;12.47;6.83;;;;;;;5.15;94.71;99508.84;5035155;28;20075;-74
2023/12/19 05:58:00;;;;;;;9.07;4.28;;;;;;;5.34;95.34;99550.69;5029096;28;20346;-72
2023/12/19 06:00:25;;;;;;;7.70;3.50;;;;;;;5.24;94.65;99541.84;5036717;28;20073;-70
2023/12/19 06:02:51;;;;;;;8.75;4.15;;;;;;;5.18;94.81;99537.00;5027459;28;21094;-72
2023/12/19 06:05:19;;;;;;;11.60;5.10;;;;;;;5.05;95.38;99539.47;5043428;28;20074;-72
2023/12/19 06:07:45;;;;;;;9.85;4.38;;;;;;;4.76;96.87;99520.47;5041828;28;20055;-72
2023/12/19 06:10:12;;;;;;;9.13;5.25;;;;;;;4.76;96.55;99513.59;5026388;28;20515;-72
2023/12/19 06:12:43;;;;;;;8.13;5.00;;;;;;;4.69;95.48;99486.53;5044658;28;20020;-73
2023/12/19 06:15:13;;;;;;;9.48;5.00;;;;;;;4.81;95.61;99509.00;5031270;28;20039;-70
2023/12/19 06:17:45;;;;;;;8.50;4.72;;;;;;;4.61;96.38;99494.66;5043137;28;20484;-69
2023/12/19 06:20:11;;;;;;;9.05;4.72;;;;;;;4.72;97.13;99524.97;5042828;28;20028;-70
2023/12/19 06:22:39;;;;;;;8.77;5.05;;;;;;;4.39;97.59;99527.66;5023677;28;20455;-73
2023/12/19 06:25:05;;;;;;;8.70;4.70;;;;;;;4.10;98.30;99496.56;5045302;28;20037;-73
2023/12/19 06:27:34;;;;;;;10.32;5.22;;;;;;;4.38;98.59;99544.88;5024167;28;20130;-73
2023/12/19 06:30:00;;;;;;;9.15;4.72;;;;;;;4.47;99.20;99530.63;5044152;28;20460;-73
2023/12/19 06:32:25;;;;;;;12.88;4.88;;;;;;;4.43;100.00;99493.09;5035258;28;20028;-70
2023/12/19 06:34:50;;;;;;;8.70;4.30;;;;;;;4.76;97.90;99539.38;5037188;28;20013;-71
2023/12/19 06:37:16;;;;;;;8.18;4.32;;;;;;;4.57;100.00;99539.53;5040174;28;20386;-74
2023/12/19 06:39:46;;;;;;;6.32;3.22;;;;;;;4.70;100.00;99523.41;5024329;28;20028;-73
2023/12/19 06:42:12;;;;;;;7.32;3.33;;;;;;;4.86;100.00;99507.94;5026315;28;20250;-73
2023/12/19 06:44:40;;;;;;;5.65;2.58;;;;;;;5.03;100.00;99518.09;5024008;28;20028;-75
2023/12/19 06:47:05;;;;;;;5.60;2.50;;;;;;;5.20;99.02;99524.84;5045764;28;20039;-70
2023/12/19 06:49:33;;;;;;;5.32;2.70;;;;;;;5.35;98.14;99512.84;5041719;28;20033;-76
2023/12/19 06:52:02;;;;;;;6.38;2.42;;;;;;;5.42;99.12;99509.00;5047138;28;20032;-72
2023/12/19 06:54:27;;;;;;;5.43;2.50;;;;;;;5.47;99.28;99521.59;5042255;28;20055;-75
2023/12/19 06:56:53;;;;;;;5.80;2.45;;;;;;;5.52;97.52;99525.56;5037521;28;20020;-72
2023/12/19 06:59:24;;;;;;;5.88;2.78;;;;;;;5.56;97.67;99524.47;5050789;28;20127;-72
2023/12/19 07:01:49;;;;;;;6.10;2.85;;;;;;;5.62;97.33;99531.00;5023142;28;20039;-74
2023/12/19 07:04:15;;;;;;;5.03;2.58;;;;;;;5.61;97.13;99524.22;5036956;28;20025;-71
2023/12/19 07:06:43;;;;;;;5.60;2.60;;;;;;;5.52;97.39;99524.75;5049565;28;20028;-75
2023/12/19 07:09:08;;;;;;;5.45;2.88;;;;;;;5.43;97.10;99523.53;5045847;28;20090;-70
2023/12/19 07:11:33;;;;;;;6.53;2.67;;;;;;;5.20;97.43;99514.53;5045493;28;20016;-76
2023/12/19 07:14:01;;;;;;;7.18;3.20;;;;;;;5.21;97.06;99513.66;5050670;28;20103;-75
2023/12/19 07:16:27;;;;;;;6.05;2.92;;;;;;;5.20;97.67;99522.28;5047033;28;21275;-72
2023/12/19 07:18:55;;;;;;;7.03;2.90;;;;;;;5.06;98.62;99520.50;5052058;28;20029;-74
2023/12/19 07:21:21;;;;;;;5.53;2.30;;;;;;;5.22;97.51;99514.47;5044593;28;20033;-75
2023/12/19 07:23:53;;;;;;;6.32;2.65;;;;;;;5.41;96.45;99511.66;5049451;28;20028;-75
2023/12/19 07:26:26;;;;;;;6.22;3.00;;;;;;;5.46;96.33;99520.78;5048065;28;20088;-73
2023/12/19 07:28:59;;;;;;;5.57;2.65;;;;;;;5.14;96.42;99471.91;5030308;28;20151;-76
2023/12/19 07:31:31;;;;;;;5.90;2.60;;;;;;;5.10;96.02;99457.53;5034270;28;20155;-73
2023/12/19 07:34:01;;;;;;;5.63;2.60;;;;;;;5.30;96.58;99499.38;5032696;28;20399;-76
2023/12/19 07:36:28;;;;;;;6.90;2.85;;;;;;;5.23;96.86;99509.22;5035545;28;20024;-69
2023/12/19 07:38:56;;;;;;;6.10;3.28;;;;;;;5.16;96.67;99511.31;5048139;28;20024;-75
2023/12/19 07:41:26;;;;;;;6.70;2.92;;;;;;;5.12;97.70;99512.41;5029676;28;20040;-74
2023/12/19 07:43:55;;;;;;;7.70;2.72;;;;;;;5.19;97.38;99523.22;5036361;28;20975;-72
2023/12/19 07:46:21;;;;;;;6.25;3.15;;;;;;;5.14;97.09;99528.63;5031875;28;20556;-75
2023/12/19 07:48:46;;;;;;;8.48;3.20;;;;;;;4.73;98.07;99476.88;5050167;28;20181;-73
2023/12/19 07:51:16;;;;;;;9.38;2.78;;;;;;;5.01;98.62;99519.94;5033673;28;20124;-72
2023/12/19 07:53:41;;;;;;;;;;;;;;;4.81;98.06;99490.13;5032906;28;20146;-74
2023/12/19 07:56:09;;;;;;;8.43;3.00;;;;;;;5.05;97.82;99512.88;5047279;28;19954;-74
2023/12/19 07:58:35;;;;;;;9.00;3.28;;;;;;;4.96;98.37;99503.91;5054658;28;20028;-74
2023/12/19 08:01:00;;;;;;;7.38;3.17;;;;;;;4.86;98.36;99498.44;5032842;28;20039;-73
2023/12/19 08:03:28;;;;;;;6.03;3.30;;;;;;;4.91;98.83;99503.31;5049955;28;20025;-69
2023/12/19 08:05:56;;;;;;;8.82;2.83;;;;;;;4.96;98.10;99503.91;5045684;28;20025;-73
2023/12/19 08:08:27;;;;;;;7.00;3.10;;;;;;;5.02;98.34;99495.84;5047234;28;20896;-71
2023/12/19 08:10:52;;;;;;;9.32;3.25;;;;;;;4.94;98.37;99495.44;5034977;28;20056;-73
2023/12/19 08:13:20;;;;;;;8.57;3.15;;;;;;;4.75;99.00;99495.66;5049719;28;20028;-76
2023/12/19 08:15:49;;;;;;;8.40;3.55;;;;;;;4.81;98.75;99498.69;5051123;28;20067;-72
2023/12/19 08:18:17;;;;;;;7.88;4.10;;;;;;;4.85;98.97;99503.69;5048781;28;20143;-74
2023/12/19 08:20:46;;;;;;;7.82;3.47;;;;;;;4.68;100.00;99461.66;5028679;28;20033;-73
2023/12/19 08:23:11;;;;;;;6.47;3.30;;;;;;;4.98;100.00;99500.34;5053102;28;20059;-75
2023/12/19 08:25:41;;;;;;;9.20;3.20;;;;;;;5.01;100.00;99500.13;5029737;28;20490;-74
2023/12/19 08:28:11;;;;;;;;;;;;;;;5.03;99.32;99504.38;5038933;28;20025;-71
2023/12/19 08:30:42;;;;;;;6.60;2.72;;;;;;;5.01;100.00;99489.00;5033246;28;19924;-72
2023/12/19 08:33:09;;;;;;;5.80;2.80;;;;;;;5.14;100.00;99497.69;5044906;28;20558;-72
2023/12/19 08:35:35;;;;;;;7.40;3.03;;;;;;;5.11;100.00;99484.13;5028651;28;20143;-73
2023/12/19 08:38:00;;;;;;;8.15;3.38;;;;;;;5.17;100.00;99492.38;5049409;28;20138;-69
2023/12/19 08:40:30;;;;;;;7.75;3.38;;;;;;;5.29;100.00;99497.72;5050727;28;20910;-72
2023/12/19 08:42:55;;;;;;;9.38;3.42;;;;;;;5.39;100.00;99496.28;5047694;28;20407;-73
2023/12/19 08:45:26;;;;;;;9.25;3.53;;;;;;;5.36;100.00;99473.22;5035337;28;20029;-73
2023/12/19 08:47:53;;;;;;;6.03;3.28;;;;;;;5.45;100.00;99487.34;5027921;28;20043;-77
2023/12/19 08:50:22;;;;;;;6.65;3.25;;;;;;;5.62;98.01;99482.00;5049467;28;20106;-75
2023/12/19 08:52:47;;;;;;;6.03;3.10;;;;;;;5.46;97.88;99448.56;5045246;28;20478;-73
2023/12/19 08:55:15;;;;;;;6.90;2.70;;;;;;;5.77;98.07;99482.84;5034092;28;20053;-75
2023/12/19 08:57:42;;;;;;;7.50;2.50;;;;;;;5.74;97.74;99467.53;5046331;28;20130;-74
2023/12/19 09:00:12;;;;;;;6.90;2.50;;;;;;;5.48;98.52;99435.59;5029675;28;20047;-72
2023/12/19 09:02:39;;;;;;;7.60;2.63;;;;;;;5.77;98.18;99477.69;5033649;28;20016;-74
2023/12/19 09:05:04;;;;;;;5.88;2.85;;;;;;;5.44;98.26;99428.94;5045262;28;20033;-74
2023/12/19 09:07:32;;;;;;;5.28;2.20;;;;;;;5.69;98.36;99474.72;5053634;28;20024;-75
2023/12/19 09:09:57;;;;;;;5.70;2.67;;;;;;;5.66;99.01;99474.91;5040156;28;20028;-74
2023/12/19 09:12:23;;;;;;;5.55;2.70;;;;;;;5.58;99.24;99465.91;5034269;28;20471;-75
2023/12/19 09:14:48;;;;;;;6.55;3.33;;;;;;;5.66;98.80;99474.91;5042656;28;20032;-70
2023/12/19 09:17:14;;;;;;;6.00;3.08;;;;;;;5.60;98.79;99463.19;5051454;28;20035;-76
2023/12/19 09:19:39;;;;;;;6.07;3.13;;;;;;;5.30;99.09;99432.34;5047441;28;20106;-77
2023/12/19 09:22:04;;;;;;;7.57;3.53;;;;;;;5.58;98.89;99465.03;5046495;28;20103;-73
2023/12/19 09:24:32;;;;;;;9.27;3.33;;;;;;;5.49;98.92;99461.25;5048008;28;20024;-76
2023/12/19 09:26:57;;;;;;;6.47;3.47;;;;;;;5.34;98.91;99472.50;5046412;28;20040;-74
2023/12/19 09:29:27;;;;;;;8.00;2.90;;;;;;;5.18;99.05;99437.31;5048773;28;20035;-72
2023/12/19 09:31:56;;;;;;;5.88;3.05;;;;;;;5.44;99.36;99462.47;5037994;28;20051;-72
2023/12/19 09:34:21;;;;;;;9.25;3.63;;;;;;;5.43;99.29;99450.50;5032404;28;20037;-70
2023/12/19 09:36:49;;;;;;;6.88;3.10;;;;;;;5.16;98.94;99422.84;5018208;28;20025;-73
2023/12/19 09:39:17;;;;;;;6.80;2.88;;;;;;;5.33;98.50;99443.31;5037502;28;20028;-72
2023/12/19 09:41:45;;;;;;;7.60;2.67;;;;;;;5.23;98.20;99411.25;5036598;28;20067;-69
2023/12/19 09:44:13;;;;;;;7.00;2.40;;;;;;;5.55;96.48;99444.63;5034544;28;20379;-72
2023/12/19 09:46:40;;;;;;;5.68;2.47;;;;;;;5.64;94.30;99440.63;5037942;28;20036;-71
2023/12/19 09:49:11;;;;;;;5.68;2.35;;;;;;;5.65;92.58;99403.59;5034209;28;20538;-70
2023/12/19 09:51:44;;;;;;;5.80;2.58;;;;;;;5.91;91.31;99438.97;5041598;28;20471;-71
2023/12/19 09:54:09;;;;;;;5.50;2.10;;;;;;;5.99;90.79;99435.06;5038217;28;20612;-68
2023/12/19 09:56:37;;;;;;;6.22;2.67;;;;;;;6.04;90.30;99421.00;5034877;28;20949;-72
2023/12/19 09:59:10;;;;;;;7.57;2.70;;;;;;;6.16;90.92;99433.09;5026200;28;20124;-71
2023/12/19 10:01:38;;;;;;;7.93;2.70;;;;;;;6.16;91.79;99427.94;5028326;28;20036;-69
2023/12/19 10:04:08;;;;;;;8.23;2.90;;;;;;;5.97;90.35;99386.16;5020273;28;20073;-72
2023/12/19 10:06:34;;;;;;;8.70;3.25;;;;;;;6.28;90.13;99413.44;5025135;28;20028;-69
2023/12/19 10:09:02;;;;;;;7.45;2.33;;;;;;;6.19;89.26;99402.84;5036771;28;20025;-72
2023/12/19 10:11:30;;;;;;;7.03;2.90;;;;;;;6.24;88.45;99403.38;5033699;28;20583;-70
2023/12/19 10:14:10;;;;;;;6.15;2.50;;;;;;;6.32;88.49;99390.81;5027568;28;20032;-70
2023/12/19 10:16:41;;;;;;;5.90;2.60;;;;;;;6.37;88.20;99381.03;5034302;28;21826;-73
2023/12/19 10:19:07;;;;;;;8.50;2.63;;;;;;;6.47;88.28;99383.84;5039010;28;20029;-72
2023/12/19 10:21:33;;;;;;;7.78;3.00;;;;;;;6.53;87.39;99376.53;5034819;28;20571;-70
2023/12/19 10:24:11;;;;;;;9.65;3.00;;;;;;;6.57;86.42;99358.22;5022413;28;20136;-73
2023/12/19 10:26:37;;;;;;;7.80;3.10;;;;;;;6.77;84.08;99360.31;5027580;28;20036;-70
2023/12/19 10:29:02;;;;;;;9.40;2.50;;;;;;;6.79;81.92;99368.81;5032378;28;20109;-71
2023/12/19 10:31:30;;;;;;;7.50;2.40;;;;;;;6.60;82.59;99312.31;5023563;28;20037;-68
2023/12/19 10:33:56;;;;;;;5.25;2.75;;;;;;;6.86;82.53;99353.69;5034476;28;20515;-69
2023/12/19 10:36:25;;;;;;;7.35;2.72;;;;;;;6.87;82.91;99355.38;5022742;28;20724;-70
2023/12/19 10:38:51;;;;;;;6.53;2.17;;;;;;;6.94;80.35;99341.09;5040778;28;20033;-70
2023/12/19 10:41:40;;;;;;;7.68;2.38;;;;;;;7.09;79.36;99341.81;5035148;28;20141;-67
2023/12/19 10:44:05;;;;;;;5.20;2.13;;;;;;;7.22;78.05;99334.03;5036579;28;20025;-69
2023/12/19 10:46:31;;;;;;;5.65;1.75;;;;;;;7.07;78.55;99295.34;5017393;28;20125;-69
2023/12/19 10:49:01;;;;;;;10.32;2.45;;;;;;;7.33;78.16;99321.19;5039235;28;20041;-67
2023/12/19 10:51:37;;;;;;;5.35;2.15;;;;;;;7.41;76.86;99318.06;5020152;28;20028;-70
2023/12/19 10:54:14;;;;;;;8.32;3.33;;;;;;;7.13;77.28;99271.66;5016664;28;20429;-73
2023/12/19 10:57:02;;;;;;;6.10;2.42;;;;;;;7.40;77.20;99306.06;5046319;28;20036;-74
2023/12/19 10:59:39;;;;;;;7.72;2.00;;;;;;;7.35;77.08;99284.84;5041061;28;20036;-72
2023/12/19 11:02:13;;;;;;;5.88;2.50;;;;;;;7.57;78.70;99286.75;5044017;28;20044;-74
2023/12/19 11:04:42;;;;;;;6.80;2.22;;;;;;;8.35;73.98;99275.06;5042726;28;20032;-69
2023/12/19 11:07:11;;;;;;;5.57;2.40;;;;;;;8.53;72.77;99268.53;5028870;28;20179;-72
2023/12/19 11:09:37;;;;;;;5.65;2.15;;;;;;;8.70;67.72;99271.63;5033009;28;20055;-68
2023/12/19 11:12:04;;;;;;;5.32;2.10;;;;;;;8.80;68.44;99259.63;5041147;28;20028;-67
2023/12/19 11:14:30;;;;;;;4.38;1.70;;;;;;;8.87;64.73;99259.94;5048496;28;20198;-71
2023/12/19 11:17:17;;;;;;;5.57;1.95;;;;;;;8.93;60.88;99267.28;5019844;28;20134;-71
2023/12/19 11:20:03;;;;;;;4.97;1.77;;;;;;;9.02;63.47;99251.00;5028848;28;20044;-71
2023/12/19 11:22:39;;;;;;;4.25;1.80;;;;;;;8.64;62.48;99179.59;5035272;28;20108;-72
2023/12/19 11:25:29;;;;;;;5.72;1.80;;;;;;;9.03;63.60;99237.06;5048988;28;20048;-69
2023/12/19 11:28:01;;;;;;;5.35;2.15;;;;;;;8.95;64.83;99222.13;5038198;28;20547;-69
2023/12/19 11:30:35;;;;;;;5.75;2.50;;;;;;;8.94;65.84;99217.84;5043453;28;20028;-71
2023/12/19 11:33:00;;;;;;;4.60;2.10;;;;;;;8.70;65.49;99170.50;5031547;28;20040;-72
2023/12/19 11:35:32;;;;;;;8.18;2.15;;;;;;;8.59;65.44;99164.38;5026829;28;20012;-71
2023/12/19 11:38:21;;;;;;;6.68;1.98;;;;;;;8.91;64.15;99202.56;5033599;28;20125;-70
2023/12/19 11:40:53;;;;;;;5.45;1.90;;;;;;;9.01;63.04;99198.28;5026992;28;20028;-71